createdAt,value
2022-09-25T00:02:44.488Z,21.93
2022-09-25T00:07:46.138Z,20.97
2022-09-25T00:12:47.781Z,26.57
2022-09-25T00:17:49.682Z,24.80
2022-09-25T00:22:51.235Z,27.50
2022-09-25T00:27:54.167Z,23.90
2022-09-25T00:32:55.673Z,24.07
2022-09-25T00:37:57.337Z,24.20
2022-09-25T00:42:58.837Z,23.20
2022-09-25T00:48:03.198Z,23.23
2022-09-25T00:53:10.433Z,24.40
2022-09-25T00:58:14.819Z,23.33
2022-09-25T01:03:16.989Z,26.43
2022-09-25T01:08:22.601Z,24.53
2022-09-25T01:13:24.640Z,21.37
2022-09-25T01:18:44.201Z,25.43
2022-09-25T01:23:56.478Z,24.80
2022-09-25T01:29:06.768Z,24.77
2022-09-25T01:34:22.979Z,24.27
2022-09-25T01:39:30.554Z,23.87
2022-09-25T01:44:38.220Z,20.53
2022-09-25T01:49:46.183Z,23.37
2022-09-25T01:54:51.979Z,23.40
2022-09-25T02:00:02.942Z,24.53
2022-09-25T02:05:18.658Z,27.17
2022-09-25T02:10:27.090Z,23.40
2022-09-25T02:15:32.661Z,22.63
2022-09-25T02:20:36.415Z,25.80
2022-09-25T02:25:43.834Z,22.83
2022-09-25T02:30:46.426Z,26.43
2022-09-25T02:35:48.101Z,23.97
2022-09-25T02:41:01.342Z,26.03
2022-09-25T02:46:11.474Z,26.33
2022-09-25T02:51:28.024Z,26.03
2022-09-25T02:56:33.313Z,24.97
2022-09-25T03:01:37.096Z,23.87
2022-09-25T03:06:38.953Z,23.83
2022-09-25T03:11:43.329Z,26.53
2022-09-25T03:16:48.147Z,28.73
2022-09-25T03:21:51.174Z,27.73
2022-09-25T03:26:53.965Z,27.77
2022-09-25T03:31:55.766Z,26.27
2022-09-25T03:36:57.266Z,28.33
2022-09-25T03:42:28.244Z,27.93
2022-09-25T03:47:29.764Z,24.50
2022-09-25T03:52:31.703Z,25.13
2022-09-25T03:57:34.034Z,24.90
2022-09-25T04:02:35.869Z,27.97
2022-09-25T04:07:37.522Z,26.23
2022-09-25T04:12:38.979Z,26.97
2022-09-25T04:17:40.513Z,28.37
2022-09-25T04:22:42.166Z,28.13
2022-09-25T04:27:45.549Z,26.40
2022-09-25T04:33:05.982Z,27.70
2022-09-25T04:38:07.689Z,24.93
2022-09-25T04:43:09.312Z,25.87
2022-09-25T04:48:10.908Z,22.80
2022-09-25T04:53:12.775Z,20.70
2022-09-25T04:58:14.276Z,20.07
2022-09-25T05:03:16.046Z,20.13
2022-09-25T05:08:18.117Z,18.30
2022-09-25T05:13:19.765Z,19.93
2022-09-25T05:18:22.819Z,19.00
2022-09-25T05:23:24.663Z,15.80
2022-09-25T05:28:26.336Z,15.03
2022-09-25T05:33:28.114Z,14.43
2022-09-25T05:38:32.431Z,13.30
2022-09-25T05:43:37.894Z,14.73
2022-09-25T05:48:39.869Z,12.27
2022-09-25T05:53:41.498Z,14.50
2022-09-25T05:58:43.045Z,12.87
2022-09-25T06:03:44.724Z,11.73
2022-09-25T06:08:46.323Z,12.37
2022-09-25T06:13:54.030Z,15.33
2022-09-25T06:18:56.170Z,9.67
2022-09-25T06:23:59.610Z,10.63
2022-09-25T06:29:03.383Z,9.53
2022-09-25T06:34:06.005Z,12.63
2022-09-25T06:39:08.528Z,9.37
2022-09-25T06:44:10.219Z,11.33
2022-09-25T06:49:13.142Z,11.00
2022-09-25T06:54:14.668Z,8.43
2022-09-25T06:59:16.811Z,8.97
2022-09-25T07:04:18.555Z,7.20
2022-09-25T07:09:20.051Z,6.30
2022-09-25T07:14:46.484Z,7.77
2022-09-25T07:19:49.464Z,4.93
2022-09-25T07:24:52.065Z,7.07
2022-09-25T07:29:53.617Z,4.33
2022-09-25T07:35:15.392Z,6.40
2022-09-25T07:40:43.177Z,6.17
2022-09-25T07:46:07.838Z,5.90
2022-09-25T07:51:11.629Z,5.27
2022-09-25T07:56:13.324Z,5.33
2022-09-25T08:01:15.082Z,6.97
2022-09-25T08:06:16.734Z,6.67
2022-09-25T08:11:18.669Z,4.97
2022-09-25T08:16:22.743Z,3.80
2022-09-25T08:21:24.628Z,3.77
2022-09-25T08:26:28.319Z,3.40
2022-09-25T08:31:29.935Z,6.17
2022-09-25T08:36:31.553Z,4.50
2022-09-25T08:41:41.276Z,7.53
2022-09-25T08:47:32.551Z,5.93
2022-09-25T08:52:34.308Z,4.80
2022-09-25T08:57:43.847Z,5.87
2022-09-25T09:02:48.073Z,5.53
2022-09-25T09:07:54.730Z,5.00
2022-09-25T09:13:00.387Z,7.27
2022-09-25T09:18:15.273Z,6.13
2022-09-25T09:23:19.739Z,4.33
2022-09-25T09:28:33.665Z,4.50
2022-09-25T09:34:13.633Z,5.60
2022-09-25T09:39:37.271Z,4.93
2022-09-25T09:45:00.251Z,5.90
2022-09-25T09:50:18.161Z,3.50
2022-09-25T09:55:22.743Z,3.17
2022-09-25T10:00:24.663Z,3.60
2022-09-25T10:05:31.059Z,7.13
2022-09-25T10:10:44.234Z,5.03
2022-09-25T10:16:11.650Z,2.77
2022-09-25T10:21:19.979Z,4.00
2022-09-25T10:26:38.451Z,2.90
2022-09-25T10:31:40.745Z,4.57
2022-09-25T10:36:54.046Z,2.10
2022-09-25T10:41:58.354Z,1.70
2022-09-25T10:47:36.642Z,1.70
2022-09-25T10:52:45.130Z,1.47
2022-09-25T10:57:47.219Z,1.03
2022-09-25T11:02:53.599Z,2.10
2022-09-25T11:07:57.912Z,2.20
2022-09-25T11:13:01.165Z,3.03
2022-09-25T11:18:06.143Z,2.83
2022-09-25T11:23:32.256Z,3.43
2022-09-25T11:28:53.267Z,4.63
2022-09-25T11:34:03.744Z,1.73
2022-09-25T11:40:35.212Z,3.30
2022-09-25T11:45:42.774Z,1.13
2022-09-25T11:51:18.551Z,2.33
2022-09-25T11:56:35.065Z,2.73
2022-09-25T12:01:45.400Z,2.27
2022-09-25T12:06:59.511Z,1.73
2022-09-25T12:12:10.001Z,2.47
2022-09-25T12:17:49.938Z,1.70
2022-09-25T12:23:15.905Z,2.70
2022-09-25T12:28:26.728Z,1.63
2022-09-25T12:33:34.483Z,0.67
2022-09-25T12:39:18.540Z,0.80
2022-09-25T12:44:44.877Z,2.67
2022-09-25T12:49:57.925Z,1.93
2022-09-25T12:55:13.584Z,2.50
2022-09-25T13:00:24.102Z,1.53
2022-09-25T13:05:52.191Z,2.40
2022-09-25T13:10:58.385Z,1.13
2022-09-25T13:16:01.330Z,1.87
2022-09-25T13:21:29.091Z,3.03
2022-09-25T13:26:32.633Z,1.60
2022-09-25T13:31:37.187Z,2.50
2022-09-25T13:36:50.179Z,2.60
2022-09-25T13:41:58.689Z,2.00
2022-09-25T13:47:24.395Z,0.87
2022-09-25T13:53:17.532Z,0.63
2022-09-25T13:58:20.313Z,3.30
2022-09-25T14:03:46.875Z,0.80
2022-09-25T14:08:49.741Z,2.63
2022-09-25T14:13:52.735Z,1.03
2022-09-25T14:18:57.042Z,1.03
2022-09-25T14:24:12.706Z,2.40
2022-09-25T14:29:40.409Z,2.43
2022-09-25T14:35:16.081Z,1.83
2022-09-25T14:40:20.512Z,0.80
2022-09-25T14:45:31.421Z,3.17
2022-09-25T14:50:37.121Z,3.20
2022-09-25T14:55:44.972Z,0.80
2022-09-25T15:00:49.204Z,1.47
2022-09-25T15:05:51.422Z,1.57
2022-09-25T15:11:15.618Z,2.43
2022-09-25T15:16:39.594Z,2.67
2022-09-25T15:21:42.654Z,1.60
2022-09-25T15:26:49.492Z,1.87
2022-09-25T15:31:51.676Z,2.27
2022-09-25T15:36:53.901Z,2.57
2022-09-25T15:41:55.695Z,1.90
2022-09-25T15:47:01.832Z,3.37
2022-09-25T15:52:05.995Z,1.40
2022-09-25T15:57:11.339Z,1.07
2022-09-25T16:02:37.557Z,2.43
2022-09-25T16:07:39.549Z,3.43
2022-09-25T16:12:42.357Z,1.00
2022-09-25T16:17:44.066Z,1.20
2022-09-25T16:22:47.986Z,0.70
2022-09-25T16:27:49.658Z,2.40
2022-09-25T16:33:03.481Z,1.20
2022-09-25T16:38:05.138Z,1.77
2022-09-25T16:43:26.285Z,1.63
2022-09-25T16:48:31.431Z,1.03
2022-09-25T16:53:33.039Z,0.83
2022-09-25T16:58:37.421Z,0.90
2022-09-25T17:03:49.752Z,1.37
2022-09-25T17:08:51.425Z,1.33
2022-09-25T17:13:53.132Z,3.07
2022-09-25T17:18:59.174Z,3.27
2022-09-25T17:24:04.097Z,3.77
2022-09-25T17:29:06.339Z,0.93
2022-09-25T17:34:24.843Z,3.13
2022-09-25T17:39:26.525Z,0.80
2022-09-25T17:44:29.438Z,2.27
2022-09-25T17:49:31.136Z,1.38
2022-09-25T17:54:32.637Z,1.23
2022-09-25T17:59:34.264Z,1.43
2022-09-25T18:04:35.749Z,1.00
2022-09-25T18:09:37.217Z,1.30
2022-09-25T18:14:39.035Z,1.67
2022-09-25T18:20:18.887Z,1.47
2022-09-25T18:25:20.396Z,1.50
2022-09-25T18:30:24.459Z,2.67
2022-09-25T18:35:26.264Z,1.80
2022-09-25T18:40:27.789Z,2.20
2022-09-25T18:45:29.548Z,1.80
2022-09-25T18:50:32.287Z,2.50
2022-09-25T18:55:34.013Z,3.23
2022-09-25T19:00:35.966Z,4.07
2022-09-25T19:05:37.604Z,6.37
2022-09-25T19:10:39.201Z,4.17
2022-09-25T19:15:43.859Z,4.27
2022-09-25T19:20:54.867Z,5.17
2022-09-25T19:25:59.221Z,5.80
2022-09-25T19:31:06.153Z,7.23
2022-09-25T19:36:15.475Z,5.10
2022-09-25T19:41:19.845Z,4.67
2022-09-25T19:46:21.573Z,5.93
2022-09-25T19:51:24.915Z,4.03
2022-09-25T19:56:26.927Z,4.77
2022-09-25T20:01:30.246Z,5.43
2022-09-25T20:06:31.928Z,3.03
2022-09-25T20:11:35.222Z,3.90
2022-09-25T20:16:39.492Z,4.27
2022-09-25T20:21:41.756Z,4.00
2022-09-25T20:26:43.406Z,4.27
2022-09-25T20:31:46.427Z,4.80
2022-09-25T20:36:48.251Z,4.00
2022-09-25T20:41:50.351Z,4.33
2022-09-25T20:46:51.962Z,4.30
2022-09-25T20:51:53.574Z,5.60
2022-09-25T20:56:55.152Z,5.80
2022-09-25T21:01:56.893Z,7.13
2022-09-25T21:06:58.510Z,4.83
2022-09-25T21:12:00.327Z,8.50
2022-09-25T21:17:01.991Z,6.47
2022-09-25T21:22:04.109Z,5.97
2022-09-25T21:27:05.636Z,4.23
2022-09-25T21:32:07.132Z,5.63
2022-09-25T21:37:08.593Z,5.13
2022-09-25T21:42:10.128Z,6.90
2022-09-25T21:47:11.673Z,3.93
2022-09-25T21:52:13.164Z,5.37
2022-09-25T21:57:14.635Z,3.10
2022-09-25T22:02:16.149Z,3.00
2022-09-25T22:07:17.687Z,5.10
2022-09-25T22:12:19.566Z,4.23
2022-09-25T22:17:21.216Z,4.53
2022-09-25T22:22:22.758Z,4.43
2022-09-25T22:27:24.353Z,4.50
2022-09-25T22:32:25.887Z,4.87
2022-09-25T22:37:27.651Z,5.63
2022-09-25T22:42:29.228Z,4.93
2022-09-25T22:47:30.986Z,3.77
2022-09-25T22:52:34.542Z,3.33
2022-09-25T22:57:39.347Z,5.40
2022-09-25T23:02:40.836Z,4.77
2022-09-25T23:07:42.727Z,2.73
2022-09-25T23:12:44.201Z,3.00
2022-09-25T23:17:45.803Z,4.50
2022-09-25T23:22:47.248Z,4.20
2022-09-25T23:27:48.785Z,2.80
2022-09-25T23:32:50.406Z,7.17
2022-09-25T23:37:52.480Z,2.97
2022-09-25T23:42:54.600Z,5.57
2022-09-25T23:47:56.523Z,5.73
2022-09-25T23:52:58.217Z,5.13
2022-09-25T23:58:00.061Z,4.63
